Time;durP1;ratioP1;P1;durP2;ratioP2;P2;SDS_P1;SDS_P2;PMS_P1;PMS_P2;Temp;Humidity;BMP_temperature;BMP_pressure;BME280_temperature;BME280_humidity;BME280_pressure;Samples;Min_cycle;Max_cycle;Signal;HPM_P1;HPM_P2
2023/07/22 00:02:12;;;;;;;4.27;2.83;;;18.90;47.80;;;;;;20819;6812;122927;-77
2023/07/22 00:04:39;;;;;;;4.22;2.70;;;18.70;48.00;;;;;;20803;6812;117361;-77
2023/07/22 00:07:05;;;;;;;2.73;2.63;;;18.40;48.40;;;;;;20805;6812;117175;-76
2023/07/22 00:09:34;;;;;;;2.90;2.70;;;18.40;48.40;;;;;;20593;6810;311151;-77
2023/07/22 00:11:59;;;;;;;3.30;2.97;;;18.70;48.80;;;;;;20594;6811;306849;-77
2023/07/22 00:14:26;;;;;;;2.78;2.58;;;19.10;48.10;;;;;;20791;6811;117305;-77
2023/07/22 00:16:52;;;;;;;3.42;3.22;;;19.00;47.80;;;;;;20595;6811;277906;-77
2023/07/22 00:19:17;;;;;;;2.80;2.60;;;19.10;48.00;;;;;;20806;6811;121231;-75
2023/07/22 00:21:45;;;;;;;3.20;3.00;;;18.80;48.20;;;;;;20821;6811;117490;-76
2023/07/22 00:24:11;;;;;;;2.83;2.60;;;18.70;48.10;;;;;;20823;6811;119621;-78
2023/07/22 00:26:38;;;;;;;2.37;2.22;;;18.50;48.40;;;;;;20803;6811;117784;-79
2023/07/22 00:29:04;;;;;;;2.50;2.40;;;18.30;48.50;;;;;;20806;6812;117789;-77
2023/07/22 00:31:29;;;;;;;3.10;2.80;;;18.20;48.70;;;;;;20818;6812;119215;-77
2023/07/22 00:33:55;;;;;;;2.33;2.22;;;18.10;48.80;;;;;;20821;6812;117400;-80
2023/07/22 00:36:21;;;;;;;3.30;3.10;;;18.10;49.00;;;;;;20590;6812;295456;-77
2023/07/22 00:38:47;;;;;;;3.22;3.03;;;18.40;49.20;;;;;;20598;6812;319664;-80
2023/07/22 00:41:13;;;;;;;3.27;3.07;;;18.90;48.30;;;;;;20618;6812;306409;-80
2023/07/22 00:43:38;;;;;;;3.10;2.90;;;19.30;47.40;;;;;;20611;6812;308084;-76
2023/07/22 00:46:04;;;;;;;2.90;2.70;;;19.50;47.10;;;;;;20620;6812;322019;-79
2023/07/22 00:48:29;;;;;;;2.73;2.53;;;19.60;46.70;;;;;;20807;6812;117310;-78
2023/07/22 00:50:55;;;;;;;3.00;2.80;;;19.40;46.90;;;;;;20624;6812;305324;-75
2023/07/22 00:53:22;;;;;;;2.73;2.53;;;19.40;47.10;;;;;;20839;6812;116778;-75
2023/07/22 00:55:47;;;;;;;3.10;2.90;;;19.20;47.10;;;;;;20619;6812;306988;-75
2023/07/22 00:58:13;;;;;;;2.78;2.67;;;19.20;47.30;;;;;;20611;6812;300239;-77
2023/07/22 01:00:39;;;;;;;2.40;2.30;;;19.30;47.00;;;;;;20820;6812;119235;-77
2023/07/22 01:03:06;;;;;;;3.00;2.70;;;19.30;47.00;;;;;;20607;6812;336452;-77
2023/07/22 01:05:30;;;;;;;3.10;2.90;;;19.30;47.10;;;;;;20602;6812;307620;-76
2023/07/22 01:07:56;;;;;;;2.95;2.80;;;19.50;46.80;;;;;;20809;6812;67193;-76
2023/07/22 01:10:22;;;;;;;3.22;3.00;;;19.30;46.90;;;;;;20586;6812;296437;-77
2023/07/22 01:12:48;;;;;;;3.00;2.80;;;19.40;47.10;;;;;;20825;6812;117243;-75
2023/07/22 01:15:13;;;;;;;3.40;2.97;;;19.10;47.00;;;;;;20609;6812;278263;-77
2023/07/22 01:17:40;;;;;;;3.08;2.87;;;19.20;47.30;;;;;;20614;6812;276771;-77
2023/07/22 01:20:06;;;;;;;3.30;3.00;;;19.40;46.90;;;;;;20607;6810;321962;-77
2023/07/22 01:22:32;;;;;;;2.63;2.47;;;19.50;46.30;;;;;;20796;6811;118969;-76
2023/07/22 01:24:58;;;;;;;2.72;2.40;;;19.00;46.90;;;;;;20824;6811;116507;-76
2023/07/22 01:27:24;;;;;;;2.63;2.53;;;18.90;46.80;;;;;;20822;6811;119800;-77
2023/07/22 01:29:51;;;;;;;2.90;2.80;;;18.80;47.50;;;;;;20614;6811;324310;-79
2023/07/22 01:32:17;;;;;;;2.90;2.70;;;18.80;47.50;;;;;;20620;6811;286694;-75
2023/07/22 01:34:42;;;;;;;3.07;2.90;;;19.20;46.90;;;;;;20601;6811;335893;-77
2023/07/22 01:37:09;;;;;;;3.00;2.80;;;19.60;46.00;;;;;;20609;6811;306531;-76
2023/07/22 01:39:34;;;;;;;2.93;2.80;;;19.60;46.00;;;;;;20822;6811;117023;-79
2023/07/22 01:42:00;;;;;;;4.07;2.87;;;19.30;46.20;;;;;;20827;6812;117093;-77
2023/07/22 01:44:25;;;;;;;2.83;2.67;;;18.90;46.70;;;;;;20801;6812;124703;-75
2023/07/22 01:46:51;;;;;;;3.30;3.10;;;18.60;47.20;;;;;;20610;6812;297933;-77
2023/07/22 01:49:16;;;;;;;3.20;3.00;;;18.70;47.60;;;;;;20822;6812;117070;-77
2023/07/22 01:51:42;;;;;;;3.08;2.87;;;18.60;47.40;;;;;;20621;6812;276532;-77
2023/07/22 01:54:09;;;;;;;3.37;3.10;;;18.80;47.80;;;;;;20827;6812;117308;-77
2023/07/22 01:56:33;;;;;;;3.03;2.83;;;18.70;47.50;;;;;;20599;6812;290924;-77
2023/07/22 01:58:59;;;;;;;2.90;2.70;;;18.90;47.60;;;;;;20835;6812;117145;-77
2023/07/22 02:01:24;;;;;;;2.73;2.53;;;18.80;47.50;;;;;;20833;6812;116261;-77
2023/07/22 02:03:50;;;;;;;3.12;3.03;;;18.50;47.70;;;;;;20620;6812;277119;-77
2023/07/22 02:06:15;;;;;;;3.53;3.33;;;18.60;47.90;;;;;;20612;6812;310144;-76
2023/07/22 02:08:41;;;;;;;3.53;2.80;;;18.90;47.70;;;;;;20805;6812;119332;-77
2023/07/22 02:11:08;;;;;;;2.90;2.80;;;18.50;47.90;;;;;;20821;6812;117262;-84
2023/07/22 02:13:35;;;;;;;3.30;3.00;;;18.50;47.90;;;;;;20816;6812;117508;-77
2023/07/22 02:16:02;;;;;;;3.17;2.97;;;18.00;48.60;;;;;;20818;6812;117532;-80
2023/07/22 02:18:29;;;;;;;3.20;3.00;;;18.20;49.10;;;;;;20585;6812;307097;-76
2023/07/22 02:20:55;;;;;;;3.10;2.90;;;18.20;49.10;;;;;;20826;6812;119853;-74
2023/07/22 02:23:21;;;;;;;3.30;3.00;;;18.20;48.70;;;;;;20615;6812;306842;-81
2023/07/22 02:25:49;;;;;;;3.53;3.30;;;18.30;48.80;;;;;;20616;6812;306079;-76
2023/07/22 02:28:15;;;;;;;3.17;2.87;;;18.60;48.40;;;;;;20596;6812;310525;-77
2023/07/22 02:30:41;;;;;;;3.20;3.00;;;18.90;48.00;;;;;;20604;6812;275886;-79
2023/07/22 02:33:06;;;;;;;2.80;2.60;;;19.00;47.50;;;;;;20816;6810;117154;-76
2023/07/22 02:35:33;;;;;;;2.93;2.70;;;18.80;47.70;;;;;;20836;6811;122493;-76
2023/07/22 02:37:58;;;;;;;3.12;2.92;;;18.50;48.10;;;;;;20633;6811;277002;-76
2023/07/22 02:40:24;;;;;;;3.10;2.90;;;18.50;48.30;;;;;;20635;6811;278657;-75
2023/07/22 02:42:49;;;;;;;2.97;2.87;;;18.70;47.90;;;;;;20827;6811;118366;-77
2023/07/22 02:45:15;;;;;;;3.30;3.00;;;18.50;47.90;;;;;;20601;6811;307590;-76
2023/07/22 02:47:41;;;;;;;3.00;2.80;;;18.50;48.10;;;;;;20615;6811;277260;-76
2023/07/22 02:50:07;;;;;;;3.20;2.90;;;18.90;47.40;;;;;;20611;6811;311946;-77
2023/07/22 02:52:33;;;;;;;3.28;3.08;;;18.90;47.50;;;;;;20599;6812;310900;-77
2023/07/22 02:55:08;;;;;;;2.95;2.75;;;19.00;47.20;;;;;;20805;6812;117859;-77
2023/07/22 02:57:36;;;;;;;3.00;2.70;;;18.70;47.30;;;;;;20814;6812;123158;-77
2023/07/22 03:00:06;;;;;;;3.20;3.00;;;18.30;47.90;;;;;;20600;6812;340006;-77
2023/07/22 03:02:27;;;;;;;3.08;2.90;;;18.20;48.10;;;;;;20520;6812;335323;-75
2023/07/22 03:04:54;;;;;;;3.55;2.62;;;18.50;48.00;;;;;;20803;6812;117449;-75
2023/07/22 03:07:20;;;;;;;3.40;3.20;;;18.20;48.10;;;;;;20542;6812;306056;-76
2023/07/22 03:09:46;;;;;;;3.20;3.00;;;18.20;48.10;;;;;;20793;6812;118143;-76
2023/07/22 03:12:12;;;;;;;3.35;3.15;;;18.00;48.10;;;;;;20599;6812;326219;-75
2023/07/22 03:14:38;;;;;;;2.60;2.50;;;17.90;48.50;;;;;;20805;6812;119677;-76
2023/07/22 03:17:03;;;;;;;3.00;2.87;;;17.90;48.50;;;;;;20825;6812;117125;-77
2023/07/22 03:19:29;;;;;;;3.40;3.20;;;17.60;48.90;;;;;;20604;6812;341058;-79
2023/07/22 03:21:56;;;;;;;3.33;3.13;;;17.90;48.90;;;;;;20588;6812;306196;-79
2023/07/22 03:24:22;;;;;;;3.53;3.22;;;17.90;48.90;;;;;;20570;6812;280633;-79
2023/07/22 03:26:47;;;;;;;3.47;3.17;;;18.10;48.40;;;;;;20598;6812;306605;-77
2023/07/22 03:29:14;;;;;;;3.65;3.12;;;18.00;48.20;;;;;;20822;6812;120331;-76
2023/07/22 03:31:39;;;;;;;2.63;2.50;;;18.00;48.10;;;;;;20818;6812;120015;-76
2023/07/22 03:34:05;;;;;;;2.97;2.83;;;17.60;48.70;;;;;;20804;6812;119567;-76
2023/07/22 03:36:33;;;;;;;3.17;2.87;;;17.30;49.30;;;;;;20782;6812;117479;-75
2023/07/22 03:38:56;;;;;;;3.35;3.15;;;17.00;49.50;;;;;;20579;6812;306467;-77
2023/07/22 03:41:22;;;;;;;3.07;2.87;;;17.20;50.20;;;;;;20826;6812;117173;-77
2023/07/22 03:43:47;;;;;;;3.15;2.87;;;17.20;49.90;;;;;;20828;6810;117295;-76
2023/07/22 03:46:13;;;;;;;3.87;3.15;;;16.90;50.10;;;;;;20833;6811;117173;-76
2023/07/22 03:48:39;;;;;;;3.30;3.10;;;16.60;50.50;;;;;;20801;6811;117341;-75
2023/07/22 03:51:05;;;;;;;3.03;2.77;;;16.60;50.50;;;;;;20824;6811;123257;-75
2023/07/22 03:53:31;;;;;;;3.30;3.10;;;16.90;50.90;;;;;;20613;6811;284124;-76
2023/07/22 03:55:58;;;;;;;3.13;2.93;;;16.90;50.90;;;;;;20816;6811;119296;-77
2023/07/22 03:58:25;;;;;;;3.17;3.07;;;17.00;50.40;;;;;;20588;6811;306468;-76
2023/07/22 04:00:51;;;;;;;3.28;3.08;;;17.30;50.10;;;;;;20607;6811;306407;-78
2023/07/22 04:03:18;;;;;;;3.40;3.10;;;17.70;49.40;;;;;;20620;6811;314796;-82
2023/07/22 04:05:44;;;;;;;3.00;2.90;;;18.00;48.60;;;;;;20618;6812;276585;-80
2023/07/22 04:08:10;;;;;;;3.00;2.80;;;18.20;48.10;;;;;;20625;6812;289089;-79
2023/07/22 04:10:35;;;;;;;3.03;2.83;;;18.30;47.50;;;;;;20817;6812;144749;-80
2023/07/22 04:13:01;;;;;;;3.07;2.87;;;18.00;47.70;;;;;;20832;6812;117466;-79
2023/07/22 04:15:26;;;;;;;2.90;2.80;;;17.60;48.30;;;;;;20621;6812;306033;-80
2023/07/22 04:17:53;;;;;;;3.00;2.80;;;17.60;48.80;;;;;;20829;6812;120840;-80
2023/07/22 04:20:19;;;;;;;3.40;3.20;;;17.50;48.70;;;;;;20620;6812;307155;-80
2023/07/22 04:22:45;;;;;;;3.40;3.20;;;17.60;49.10;;;;;;20600;6812;310391;-81
2023/07/22 04:25:11;;;;;;;3.70;3.50;;;18.10;48.40;;;;;;20613;6812;306197;-79
2023/07/22 04:27:36;;;;;;;3.27;2.97;;;18.10;48.40;;;;;;20827;6812;117177;-79
2023/07/22 04:30:03;;;;;;;3.33;3.10;;;17.80;48.30;;;;;;20614;6812;310768;-79
2023/07/22 04:32:28;;;;;;;3.17;3.00;;;17.90;48.70;;;;;;20587;6812;310983;-79
2023/07/22 04:34:54;;;;;;;3.22;3.03;;;18.20;48.10;;;;;;20614;6812;294992;-80
2023/07/22 04:37:20;;;;;;;3.17;2.97;;;18.20;48.10;;;;;;20614;6812;306180;-79
2023/07/22 04:39:49;;;;;;;3.28;2.97;;;18.40;48.00;;;;;;20612;6812;304852;-79
2023/07/22 04:42:14;;;;;;;3.40;3.20;;;18.50;47.70;;;;;;20614;6812;305694;-80
2023/07/22 04:44:40;;;;;;;3.10;2.95;;;18.60;47.40;;;;;;20595;6812;308632;-79
2023/07/22 04:47:05;;;;;;;3.43;3.23;;;18.70;47.90;;;;;;20609;6812;306293;-80
2023/07/22 04:49:31;;;;;;;2.90;2.80;;;18.80;47.00;;;;;;20827;6812;117308;-80
2023/07/22 04:51:57;;;;;;;3.40;3.20;;;18.50;47.20;;;;;;20620;6812;276546;-80
2023/07/22 04:54:22;;;;;;;3.20;3.00;;;18.40;47.60;;;;;;20567;6812;325923;-80
2023/07/22 04:56:48;;;;;;;3.10;2.90;;;18.60;47.30;;;;;;20653;6838;121985;-79
2023/07/22 04:59:17;;;;;;;3.07;2.87;;;18.50;47.50;;;;;;20656;6804;309745;-80
2023/07/22 05:01:43;;;;;;;2.97;2.67;;;18.50;47.60;;;;;;20867;6805;116928;-80
2023/07/22 05:04:08;;;;;;;3.15;2.95;;;18.40;47.80;;;;;;20666;6805;309531;-79
2023/07/22 05:06:34;;;;;;;2.70;2.60;;;18.60;47.80;;;;;;20827;6805;125343;-80
2023/07/22 05:08:59;;;;;;;3.15;2.95;;;18.40;47.80;;;;;;20694;6805;278499;-80
2023/07/22 05:11:25;;;;;;;2.87;2.63;;;18.40;48.10;;;;;;20909;6805;118498;-82
2023/07/22 05:13:51;;;;;;;2.90;2.70;;;18.30;48.20;;;;;;20875;6805;116967;-80
2023/07/22 05:16:17;;;;;;;2.93;2.83;;;18.00;48.50;;;;;;20882;6805;117719;-79
2023/07/22 05:18:42;;;;;;;3.20;2.90;;;17.80;48.90;;;;;;20863;6805;118159;-80
2023/07/22 05:21:08;;;;;;;3.92;3.62;;;17.60;49.20;;;;;;20668;6805;305545;-80
2023/07/22 05:23:33;;;;;;;3.20;2.90;;;17.80;49.30;;;;;;20888;6805;117015;-80
2023/07/22 05:26:00;;;;;;;3.10;2.83;;;17.90;49.20;;;;;;20865;6805;120981;-80
2023/07/22 05:28:26;;;;;;;2.83;2.63;;;17.70;49.30;;;;;;20835;6805;118148;-75
2023/07/22 05:30:55;;;;;;;2.67;2.47;;;17.50;49.50;;;;;;20830;6805;118221;-75
2023/07/22 05:33:18;;;;;;;3.40;3.10;;;17.50;49.90;;;;;;20847;6805;117697;-76
2023/07/22 05:35:44;;;;;;;3.35;3.15;;;17.40;50.00;;;;;;20656;6805;305675;-76
2023/07/22 05:38:09;;;;;;;3.70;3.40;;;17.70;50.40;;;;;;20657;6805;276722;-75
2023/07/22 05:40:35;;;;;;;3.30;3.10;;;18.20;49.80;;;;;;20643;6805;277360;-76
2023/07/22 05:43:00;;;;;;;2.83;2.63;;;18.60;49.20;;;;;;20853;6805;117443;-76
2023/07/22 05:45:26;;;;;;;3.20;3.00;;;18.50;49.00;;;;;;20638;6805;277901;-77
2023/07/22 05:47:51;;;;;;;3.30;3.10;;;18.70;49.30;;;;;;20635;6805;276788;-74
2023/07/22 05:50:18;;;;;;;3.20;3.00;;;18.90;48.80;;;;;;20838;6805;117007;-79
2023/07/22 05:52:45;;;;;;;2.97;2.83;;;18.80;49.40;;;;;;20597;6805;296690;-76
2023/07/22 05:55:10;;;;;;;3.27;3.07;;;18.90;48.50;;;;;;20622;6805;306825;-75
2023/07/22 05:57:35;;;;;;;3.47;3.27;;;19.10;48.00;;;;;;20849;6805;123089;-75
2023/07/22 06:00:01;;;;;;;3.80;3.50;;;19.00;48.10;;;;;;20625;6805;279779;-76
2023/07/22 06:02:26;;;;;;;3.23;3.03;;;19.10;48.40;;;;;;20811;6805;122627;-77
2023/07/22 06:04:52;;;;;;;3.30;3.10;;;19.00;48.50;;;;;;20632;6805;306591;-75
2023/07/22 06:07:18;;;;;;;3.70;3.40;;;19.10;48.30;;;;;;20613;6803;322431;-75
2023/07/22 06:09:47;;;;;;;3.37;3.17;;;19.80;47.70;;;;;;20617;6804;277926;-75
2023/07/22 06:12:13;;;;;;;3.17;2.97;;;19.70;47.60;;;;;;20630;6805;309319;-77
2023/07/22 06:14:38;;;;;;;3.80;3.00;;;20.00;47.10;;;;;;20815;6805;128950;-76
2023/07/22 06:17:04;;;;;;;3.43;3.23;;;19.90;47.40;;;;;;20633;6805;277953;-76
2023/07/22 06:19:30;;;;;;;3.58;3.28;;;20.00;47.70;;;;;;20618;6805;305855;-76
2023/07/22 06:21:55;;;;;;;3.57;2.90;;;20.30;47.40;;;;;;20843;6805;121144;-74
2023/07/22 06:24:22;;;;;;;2.90;2.70;;;20.10;48.20;;;;;;20835;6805;119052;-76
2023/07/22 06:26:47;;;;;;;3.40;3.20;;;20.10;48.00;;;;;;20667;6805;121021;-76
2023/07/22 06:29:13;;;;;;;3.10;2.90;;;20.00;48.40;;;;;;20838;6805;117444;-75
2023/07/22 06:31:39;;;;;;;3.47;3.17;;;20.20;49.30;;;;;;20843;6805;117006;-75
2023/07/22 06:34:05;;;;;;;3.87;3.27;;;20.20;49.30;;;;;;20838;6805;117211;-76
2023/07/22 06:36:31;;;;;;;2.90;2.70;;;20.50;49.60;;;;;;20824;6805;117260;-75
2023/07/22 06:38:56;;;;;;;3.30;3.10;;;21.00;49.40;;;;;;20622;6805;281339;-76
2023/07/22 06:41:24;;;;;;;3.40;3.20;;;21.80;46.50;;;;;;20619;6805;278714;-75
2023/07/22 06:43:47;;;;;;;3.20;3.00;;;22.80;44.80;;;;;;20822;6805;117277;-75
2023/07/22 06:46:13;;;;;;;3.20;3.00;;;24.00;42.40;;;;;;20633;6805;309382;-76
2023/07/22 06:48:40;;;;;;;2.80;2.70;;;24.40;43.00;;;;;;20817;6805;127016;-77
2023/07/22 06:51:06;;;;;;;3.10;2.63;;;24.30;42.90;;;;;;20851;6805;117448;-78
2023/07/22 06:53:32;;;;;;;3.10;2.90;;;24.50;43.20;;;;;;20631;6805;307431;-72
2023/07/22 06:55:59;;;;;;;3.20;3.00;;;25.10;40.60;;;;;;20626;6805;306504;-72
2023/07/22 06:58:27;;;;;;;3.10;2.90;;;25.80;39.50;;;;;;20822;6805;117261;-71
2023/07/22 07:00:55;;;;;;;2.80;2.70;;;25.90;39.90;;;;;;20832;6805;117353;-74
2023/07/22 07:03:21;;;;;;;3.05;2.85;;;25.90;40.40;;;;;;20618;6805;340133;-73
2023/07/22 07:05:46;;;;;;;2.80;2.60;;;26.30;37.90;;;;;;20619;6805;279343;-74
2023/07/22 07:08:11;;;;;;;2.47;2.30;;;26.80;37.00;;;;;;20815;6805;119381;-74
2023/07/22 07:10:37;;;;;;;2.20;2.10;;;26.60;37.60;;;;;;20832;6805;117990;-74
2023/07/22 07:13:02;;;;;;;3.07;2.20;;;26.50;37.50;;;;;;20837;6805;117555;-74
2023/07/22 07:15:29;;;;;;;2.90;2.70;;;26.40;37.70;;;;;;20634;6805;277717;-73
2023/07/22 07:17:55;;;;;;;2.30;2.20;;;26.60;36.10;;;;;;20834;6803;117420;-72
2023/07/22 07:20:20;;;;;;;3.17;2.57;;;26.70;36.20;;;;;;20851;6804;117393;-74
2023/07/22 07:22:46;;;;;;;2.57;2.47;;;26.40;36.80;;;;;;20613;6805;306434;-74
2023/07/22 07:25:15;;;;;;;3.07;2.47;;;26.40;36.40;;;;;;20843;6805;121748;-74
2023/07/22 07:27:38;;;;;;;2.57;2.37;;;26.40;36.50;;;;;;20629;6805;277538;-74
2023/07/22 07:30:06;;;;;;;2.65;2.45;;;26.60;35.70;;;;;;20608;6805;276976;-73
2023/07/22 07:32:31;;;;;;;2.78;2.67;;;26.80;35.90;;;;;;20609;6805;305310;-76
2023/07/22 07:35:50;;;;;;;2.55;2.45;;;27.10;35.90;;;;;;20610;6805;280471;-74
2023/07/22 07:38:17;;;;;;;2.03;1.93;;;27.20;35.20;;;;;;20815;6805;117430;-76
2023/07/22 07:40:43;;;;;;;3.70;2.10;;;26.50;36.10;;;;;;20775;6805;117553;-77
2023/07/22 07:43:10;;;;;;;2.73;2.53;;;26.50;36.10;;;;;;20827;6805;117171;-76
2023/07/22 07:45:38;;;;;;;2.70;2.50;;;26.30;36.60;;;;;;20631;6805;277381;-74
2023/07/22 07:48:04;;;;;;;2.80;2.60;;;26.50;35.80;;;;;;20635;6805;307414;-77
2023/07/22 07:50:29;;;;;;;2.87;2.67;;;26.90;36.30;;;;;;20832;6805;127644;-77
2023/07/22 07:52:55;;;;;;;2.40;2.20;;;26.80;35.90;;;;;;20853;6805;116201;-78
2023/07/22 07:55:22;;;;;;;2.70;2.17;;;26.60;36.00;;;;;;20837;6805;117239;-75
2023/07/22 07:57:49;;;;;;;2.83;2.50;;;26.50;36.50;;;;;;20635;6805;276507;-77
2023/07/22 08:00:15;;;;;;;2.43;2.33;;;26.70;36.30;;;;;;20845;6805;117073;-75
2023/07/22 08:02:40;;;;;;;4.82;2.80;;;26.90;36.20;;;;;;20614;6805;281289;-77
2023/07/22 08:05:06;;;;;;;2.20;2.10;;;27.10;36.40;;;;;;20795;6805;117351;-79
2023/07/22 08:07:31;;;;;;;2.70;2.40;;;27.20;36.00;;;;;;20619;6805;306848;-77
2023/07/22 08:09:58;;;;;;;2.33;2.13;;;27.40;34.90;;;;;;20847;6805;119374;-76
2023/07/22 08:12:23;;;;;;;2.60;2.40;;;27.40;35.00;;;;;;20598;6805;292564;-78
2023/07/22 08:14:48;;;;;;;2.80;2.50;;;27.50;34.30;;;;;;20627;6805;306530;-76
2023/07/22 08:17:15;;;;;;;2.20;2.10;;;27.90;34.20;;;;;;20835;6805;116296;-75
2023/07/22 08:19:41;;;;;;;2.53;2.33;;;27.90;34.90;;;;;;20608;6805;276529;-76
2023/07/22 08:22:06;;;;;;;2.67;2.47;;;27.90;33.30;;;;;;20833;6805;119537;-75
2023/07/22 08:24:32;;;;;;;5.07;2.17;;;27.90;33.80;;;;;;20804;6805;117364;-75
2023/07/22 08:26:58;;;;;;;3.37;2.10;;;27.70;34.00;;;;;;20844;6805;117156;-78
2023/07/22 08:29:23;;;;;;;2.90;1.80;;;27.50;34.20;;;;;;20837;6805;120808;-77
2023/07/22 08:31:49;;;;;;;2.50;2.30;;;27.40;34.20;;;;;;20617;6803;306124;-76
2023/07/22 08:34:14;;;;;;;2.20;2.10;;;27.70;33.60;;;;;;20860;6805;117136;-74
2023/07/22 08:36:41;;;;;;;2.27;2.17;;;27.80;33.60;;;;;;20855;6805;119074;-76
2023/07/22 08:39:07;;;;;;;2.10;2.00;;;27.70;33.60;;;;;;20860;6805;117139;-75
2023/07/22 08:41:32;;;;;;;4.23;2.30;;;27.70;33.60;;;;;;20615;6805;306543;-76
2023/07/22 08:43:58;;;;;;;9.07;3.40;;;28.00;32.50;;;;;;20608;6805;339993;-77
2023/07/22 08:46:24;;;;;;;1.90;1.80;;;28.50;32.60;;;;;;20807;6805;143671;-75
2023/07/22 08:48:49;;;;;;;2.23;2.13;;;28.60;32.50;;;;;;20565;6805;277086;-76
2023/07/22 08:51:16;;;;;;;3.10;2.00;;;28.80;32.20;;;;;;20826;6805;119106;-77
2023/07/22 08:53:40;;;;;;;2.47;2.27;;;28.90;32.20;;;;;;20816;6805;116906;-76
2023/07/22 08:56:09;;;;;;;2.00;1.80;;;28.80;32.10;;;;;;20839;6805;116007;-75
2023/07/22 08:58:34;;;;;;;2.55;2.35;;;28.70;32.20;;;;;;20593;6805;338183;-77
2023/07/22 09:01:01;;;;;;;2.50;2.30;;;28.90;31.00;;;;;;20576;6805;306473;-76
2023/07/22 09:03:27;;;;;;;1.83;1.73;;;29.30;30.50;;;;;;20791;6805;117229;-76
2023/07/22 09:05:53;;;;;;;2.20;2.10;;;29.40;30.50;;;;;;20585;6805;308330;-75
2023/07/22 09:08:28;;;;;;;2.00;1.90;;;29.70;30.00;;;;;;20821;6805;117497;-77
2023/07/22 09:10:54;;;;;;;2.42;2.22;;;29.70;30.00;;;;;;20602;6805;340412;-77
2023/07/22 09:13:20;;;;;;;2.87;2.40;;;30.00;29.00;;;;;;20821;6805;117026;-77
2023/07/22 09:15:50;;;;;;;2.10;2.00;;;30.10;29.50;;;;;;20594;6805;296548;-76
2023/07/22 09:18:14;;;;;;;1.93;1.83;;;30.30;27.80;;;;;;20800;6805;122852;-76
2023/07/22 09:20:38;;;;;;;2.35;1.98;;;30.40;28.00;;;;;;20584;6805;338965;-76
2023/07/22 09:23:04;;;;;;;1.92;1.83;;;30.60;27.20;;;;;;20612;6805;306521;-76
2023/07/22 09:25:29;;;;;;;2.10;1.90;;;31.00;26.40;;;;;;20614;6805;280880;-77
2023/07/22 09:27:55;;;;;;;2.00;1.73;;;31.40;25.10;;;;;;20602;6805;306954;-76
2023/07/22 09:30:28;;;;;;;1.77;1.67;;;31.60;24.60;;;;;;20592;6805;341619;-76
2023/07/22 09:32:53;;;;;;;1.70;1.60;;;31.80;26.10;;;;;;20540;6805;307745;-76
2023/07/22 09:35:19;;;;;;;2.62;1.65;;;32.10;25.50;;;;;;20584;6805;276690;-77
2023/07/22 09:37:44;;;;;;;1.50;1.50;;;32.20;25.10;;;;;;20819;6805;117959;-76
2023/07/22 09:40:16;;;;;;;3.22;1.70;;;32.00;25.30;;;;;;20604;6805;335854;-77
2023/07/22 09:42:49;;;;;;;1.80;1.80;;;31.90;25.50;;;;;;20803;6803;120177;-76
2023/07/22 09:45:14;;;;;;;2.10;2.00;;;31.60;26.10;;;;;;20831;6804;118788;-75
2023/07/22 09:47:40;;;;;;;2.67;1.80;;;31.20;26.60;;;;;;20615;6805;277396;-77
2023/07/22 09:50:06;;;;;;;1.73;1.50;;;31.30;25.90;;;;;;20826;6805;117507;-77
2023/07/22 09:52:31;;;;;;;1.83;1.73;;;31.10;26.10;;;;;;20799;6805;118177;-79
2023/07/22 09:54:56;;;;;;;1.77;1.67;;;30.90;26.10;;;;;;20619;6805;307244;-76
2023/07/22 09:57:23;;;;;;;2.28;1.60;;;31.00;25.00;;;;;;20604;6805;277456;-76
2023/07/22 09:59:50;;;;;;;1.60;1.50;;;31.00;24.70;;;;;;20599;6805;344637;-76
2023/07/22 10:02:16;;;;;;;1.80;1.70;;;31.00;24.70;;;;;;20599;6805;306787;-76
2023/07/22 10:04:41;;;;;;;2.00;1.47;;;30.90;24.40;;;;;;20571;6805;307354;-76
2023/07/22 10:07:07;;;;;;;1.40;1.30;;;30.80;25.10;;;;;;20832;6805;121327;-75
2023/07/22 10:09:34;;;;;;;1.52;1.52;;;30.60;25.50;;;;;;20824;6805;117657;-77
2023/07/22 10:12:00;;;;;;;1.73;1.50;;;30.30;25.70;;;;;;20596;6805;290319;-76
2023/07/22 10:14:25;;;;;;;1.53;1.53;;;30.30;25.70;;;;;;20812;6805;116973;-77
2023/07/22 10:16:52;;;;;;;1.60;1.50;;;30.10;25.80;;;;;;20838;6805;118070;-75
2023/07/22 10:19:16;;;;;;;1.70;1.60;;;29.70;26.70;;;;;;20581;6805;311986;-77
2023/07/22 10:21:42;;;;;;;1.62;1.52;;;29.70;25.70;;;;;;20588;6805;277807;-74
2023/07/22 10:24:08;;;;;;;1.70;1.60;;;29.90;25.90;;;;;;20605;6805;277055;-75
2023/07/22 10:26:34;;;;;;;1.73;1.63;;;30.10;25.90;;;;;;20600;6805;308943;-76
2023/07/22 10:29:00;;;;;;;1.40;1.30;;;30.20;25.80;;;;;;20843;6805;119364;-75
2023/07/22 10:31:26;;;;;;;3.00;1.60;;;30.00;26.10;;;;;;20635;6805;280045;-75
2023/07/22 10:33:52;;;;;;;2.47;1.50;;;29.90;25.90;;;;;;20833;6805;118166;-77
2023/07/22 10:36:17;;;;;;;2.00;1.70;;;29.70;26.40;;;;;;20610;6805;313745;-77
2023/07/22 10:38:43;;;;;;;2.00;1.90;;;29.60;26.60;;;;;;20614;6805;286365;-74
2023/07/22 10:41:16;;;;;;;1.60;1.50;;;29.50;27.00;;;;;;20838;6805;123627;-74
2023/07/22 10:43:40;;;;;;;1.60;1.50;;;29.50;27.00;;;;;;20613;6805;276641;-76
2023/07/22 10:46:07;;;;;;;2.17;1.70;;;29.30;27.30;;;;;;20827;6805;121380;-76
2023/07/22 10:48:34;;;;;;;1.70;1.60;;;29.30;27.30;;;;;;20553;6805;306731;-75
2023/07/22 10:51:07;;;;;;;3.90;1.70;;;29.30;27.30;;;;;;20831;6805;120706;-76
2023/07/22 10:53:32;;;;;;;1.80;1.70;;;29.10;27.40;;;;;;20619;6803;277005;-77
2023/07/22 10:56:04;;;;;;;1.73;1.62;;;29.20;27.60;;;;;;20589;6804;340130;-75
2023/07/22 10:58:34;;;;;;;1.90;1.80;;;29.40;27.90;;;;;;20586;6805;310888;-79
2023/07/22 11:01:30;;;;;;;1.83;1.73;;;29.70;28.20;;;;;;20739;6805;117565;-76
2023/07/22 11:04:06;;;;;;;1.70;1.60;;;29.70;27.90;;;;;;20830;6805;117220;-76
2023/07/22 11:06:31;;;;;;;1.93;1.83;;;29.60;28.00;;;;;;20603;6805;340477;-75
2023/07/22 11:08:59;;;;;;;2.75;1.92;;;29.90;27.30;;;;;;20617;6805;310294;-78
2023/07/22 11:11:34;;;;;;;1.90;1.80;;;29.90;27.30;;;;;;20839;6805;119163;-76
2023/07/22 11:14:16;;;;;;;2.30;2.10;;;29.80;27.60;;;;;;20548;6805;278389;-76
2023/07/22 11:16:42;;;;;;;2.13;1.93;;;29.90;26.90;;;;;;20796;6805;123372;-76
2023/07/22 11:19:09;;;;;;;2.28;2.17;;;29.90;26.90;;;;;;20620;6805;306862;-76
2023/07/22 11:21:34;;;;;;;3.23;1.90;;;30.00;27.50;;;;;;20841;6805;117315;-74
2023/07/22 11:24:00;;;;;;;2.10;2.00;;;30.10;27.30;;;;;;20632;6805;283579;-77
2023/07/22 11:26:25;;;;;;;2.00;1.90;;;30.30;27.10;;;;;;20822;6805;119273;-77
2023/07/22 11:28:53;;;;;;;2.33;2.13;;;30.30;26.80;;;;;;20634;6805;335927;-75
2023/07/22 11:31:16;;;;;;;2.63;2.43;;;30.40;26.20;;;;;;20853;6805;117250;-77
2023/07/22 11:33:46;;;;;;;2.10;2.00;;;30.30;26.20;;;;;;20636;6805;336027;-78
2023/07/22 11:36:10;;;;;;;2.50;2.27;;;30.30;26.20;;;;;;20850;6805;116399;-76
2023/07/22 11:38:35;;;;;;;2.37;2.27;;;30.20;26.20;;;;;;20625;6805;277045;-74
2023/07/22 11:41:01;;;;;;;2.50;2.40;;;30.30;26.00;;;;;;20630;6805;282563;-76
2023/07/22 11:43:26;;;;;;;2.42;2.33;;;30.40;25.70;;;;;;20626;6805;307004;-76
2023/07/22 11:45:52;;;;;;;2.40;2.30;;;30.60;25.70;;;;;;20841;6805;117773;-76
2023/07/22 11:48:19;;;;;;;2.20;2.10;;;30.50;26.20;;;;;;20628;6805;277041;-77
2023/07/22 11:50:43;;;;;;;2.70;2.50;;;30.70;26.70;;;;;;20599;6805;294311;-75
2023/07/22 11:53:09;;;;;;;2.50;2.23;;;31.00;26.30;;;;;;20839;6805;122288;-76
2023/07/22 11:55:34;;;;;;;2.30;2.20;;;31.00;26.20;;;;;;20826;6805;117914;-75
2023/07/22 11:58:00;;;;;;;2.40;2.30;;;30.80;26.40;;;;;;20636;6805;278115;-75
2023/07/22 12:00:25;;;;;;;2.20;2.00;;;31.00;27.20;;;;;;20814;6805;119221;-75
2023/07/22 12:02:57;;;;;;;3.77;1.87;;;31.00;26.90;;;;;;20814;6805;67111;-76
2023/07/22 12:05:20;;;;;;;3.47;2.07;;;30.90;27.00;;;;;;20820;6803;120563;-79
2023/07/22 12:07:46;;;;;;;2.10;2.00;;;30.70;27.00;;;;;;20817;6804;117389;-76
2023/07/22 12:10:11;;;;;;;2.17;2.07;;;30.50;27.00;;;;;;20821;6805;117330;-76
2023/07/22 12:12:48;;;;;;;2.37;2.20;;;30.40;26.80;;;;;;20795;6805;117653;-74
2023/07/22 12:15:20;;;;;;;2.47;2.30;;;30.30;26.90;;;;;;20606;6805;279963;-76
2023/07/22 12:17:56;;;;;;;2.25;2.15;;;30.80;26.40;;;;;;20596;6805;307582;-75
2023/07/22 12:20:29;;;;;;;2.80;2.40;;;30.80;26.50;;;;;;20583;6805;277326;-76
2023/07/22 12:22:57;;;;;;;2.60;2.50;;;31.00;26.10;;;;;;20794;6805;117517;-75
2023/07/22 12:25:24;;;;;;;2.30;2.20;;;30.60;26.10;;;;;;20809;6805;117766;-76
2023/07/22 12:27:50;;;;;;;2.80;2.10;;;30.30;26.30;;;;;;20817;6805;121099;-75
2023/07/22 12:30:16;;;;;;;2.20;2.10;;;30.30;26.30;;;;;;20822;6805;117248;-76
2023/07/22 12:32:43;;;;;;;2.43;2.33;;;30.20;26.60;;;;;;20572;6805;278348;-76